Time;durP1;ratioP1;P1;durP2;ratioP2;P2;SDS_P1;SDS_P2;PMS_P1;PMS_P2;Temp;Humidity;BMP_temperature;BMP_pressure;BME280_temperature;BME280_humidity;BME280_pressure;Samples;Min_cycle;Max_cycle;Signal;HPM_P1;HPM_P2
2022/12/25 00:02:22;;;;;;;;;;;;;;;14.74;45.15;99473.47;4452176;32;33755;-89
2022/12/25 00:04:49;;;;;;;;;;;;;;;14.63;45.48;99483.03;4451547;32;34757;-92
2022/12/25 00:07:17;;;;;;;;;;;;;;;14.76;45.23;99484.75;4453395;32;33697;-94
2022/12/25 00:09:44;;;;;;;;;;;;;;;14.35;45.97;99490.72;4457224;32;34088;-94
2022/12/25 00:12:11;;;;;;;;;;;;;;;14.80;45.10;99483.88;4456926;32;33717;-91
2022/12/25 00:14:39;;;;;;;;;;;;;;;14.47;45.71;99484.66;4457182;32;34121;-89
2022/12/25 00:17:06;;;;;;;;;;;;;;;14.43;46.08;99494.22;4465336;32;35150;-90
2022/12/25 00:19:33;;;;;;;;;;;;;;;14.75;45.26;99496.94;4456153;32;32886;-91
2022/12/25 00:22:01;;;;;;;;;;;;;;;14.71;45.41;99499.56;4456913;32;34602;-89
2022/12/25 00:24:28;;;;;;;;;;;;;;;14.55;45.72;99498.66;4460148;32;34249;-93
2022/12/25 00:26:55;;;;;;;;;;;;;;;14.86;45.05;99499.56;4461621;32;34694;-93
2022/12/25 00:29:23;;;;;;;;;;;;;;;14.89;44.90;99506.50;4457899;32;35235;-91
2022/12/25 00:31:51;;;;;;;;;;;;;;;14.86;45.17;99519.59;4430852;32;32658;-83
2022/12/25 00:34:19;;;;;;;;;;;;;;;14.99;44.81;99522.19;4466258;32;32732;-92
2022/12/25 00:36:48;;;;;;;;;;;;;;;14.96;44.78;99524.78;4480678;31;34411;-89
2022/12/25 00:39:15;;;;;;;;;;;;;;;14.78;44.98;99522.19;4467732;32;34171;-93
2022/12/25 00:44:29;;;;;;;;;;;;;;;14.73;45.38;99527.38;4476282;31;35011;-84
2022/12/25 00:46:56;;;;;;;;;;;;;;;14.90;44.89;99529.16;4489078;31;34219;-91
2022/12/25 00:49:24;;;;;;;;;;;;;;;14.87;45.11;99543.06;4502858;31;34313;-83
2022/12/25 00:51:51;;;;;;;;;;;;;;;14.92;45.16;99550.91;4462035;31;870052;-84
2022/12/25 00:54:19;;;;;;;;;;;;;;;14.96;44.82;99550.03;4489709;31;34812;-88
2022/12/25 00:56:46;;;;;;;;;;;;;;;15.08;44.58;99550.94;4472572;32;34338;-82
2022/12/25 00:59:13;;;;;;;;;;;;;;;15.17;44.20;99552.66;4473872;31;35176;-84
2022/12/25 01:01:40;;;;;;;;;;;;;;;15.05;44.49;99545.69;4482093;31;33433;-89
2022/12/25 01:04:09;;;;;;;;;;;;;;;15.04;44.42;99536.13;4479418;32;32929;-93
2022/12/25 01:06:38;;;;;;;;;;;;;;;15.17;44.13;99541.34;4487354;32;34125;-85
2022/12/25 01:11:52;;;;;;;;;;;;;;;15.06;44.38;99544.81;4487665;31;33520;-93
2022/12/25 01:14:19;;;;;;;;;;;;;;;15.20;44.12;99549.19;4472885;32;34994;-93
2022/12/25 01:16:46;;;;;;;;;;;;;;;15.07;44.44;99546.56;4472783;32;34338;-95
2022/12/25 01:19:13;;;;;;;;;;;;;;;15.10;44.37;99550.94;4494548;31;35352;-95
2022/12/25 01:21:42;;;;;;;;;;;;;;;14.81;45.08;99545.66;4488463;31;33230;-88
2022/12/25 01:24:09;;;;;;;;;;;;;;;14.93;44.77;99556.16;4482942;31;34550;-84
2022/12/25 01:26:36;;;;;;;;;;;;;;;15.09;44.42;99550.06;4473958;31;34574;-96
2022/12/25 01:29:04;;;;;;;;;;;;;;;15.08;44.39;99543.09;4490687;31;35269;-93
2022/12/25 01:31:32;;;;;;;;;;;;;;;15.24;43.91;99543.97;4471738;32;33633;-93
2022/12/25 01:33:59;;;;;;;;;;;;;;;15.30;43.93;99532.62;4479657;31;34044;-89
2022/12/25 01:36:26;;;;;;;;;;;;;;;14.99;44.30;99539.59;4483744;31;34499;-94
2022/12/25 01:38:54;;;;;;;;;;;;;;;14.99;44.42;99552.66;4494279;31;34456;-94
2022/12/25 01:41:22;;;;;;;;;;;;;;;15.11;44.20;99557.00;4487402;31;33765;-94
2022/12/25 01:43:58;;;;;;;;;;;;;;;15.16;44.15;99557.91;4486989;31;34115;-83
2022/12/25 01:46:25;;;;;;;;;;;;;;;15.10;44.18;99566.59;4478671;31;34247;-87
2022/12/25 01:48:53;;;;;;;;;;;;;;;14.70;44.92;99558.72;4483645;31;34788;-83
2022/12/25 01:51:21;;;;;;;;;;;;;;;14.65;45.18;99567.37;4481076;31;32983;-90
2022/12/25 01:53:49;;;;;;;;;;;;;;;14.52;45.40;99569.09;4470105;32;34172;-93
2022/12/25 01:56:16;;;;;;;;;;;;;;;14.95;44.56;99562.22;4475020;31;33369;-88
2022/12/25 01:58:43;;;;;;;;;;;;;;;15.05;44.33;99561.38;4494912;31;34765;-94
2022/12/25 02:01:11;;;;;;;;;;;;;;;14.99;44.38;99569.19;4476887;31;33369;-90
2022/12/25 02:03:41;;;;;;;;;;;;;;;15.17;44.12;99562.25;4478386;31;34122;-84
2022/12/25 02:06:08;;;;;;;;;;;;;;;15.06;44.18;99570.94;4498561;31;34220;-85
2022/12/25 02:08:36;;;;;;;;;;;;;;;15.17;44.00;99567.47;4480884;31;34385;-86
2022/12/25 02:11:03;;;;;;;;;;;;;;;15.00;44.42;99570.06;4473358;31;33350;-84
2022/12/25 02:13:30;;;;;;;;;;;;;;;14.64;45.33;99563.03;4499896;31;33916;-83
2022/12/25 02:16:27;;;;;;;;;;;;;;;14.96;44.51;99557.88;4477872;31;34927;-84
2022/12/25 02:18:59;;;;;;;;;;;;;;;15.01;44.38;99559.63;4476087;31;34012;-91
2022/12/25 02:21:26;;;;;;;;;;;;;;;14.98;44.43;99569.19;4487074;31;33713;-84
2022/12/25 02:24:13;;;;;;;;;;;;;;;14.71;44.99;99563.06;4466743;32;32531;-94
2022/12/25 02:26:40;;;;;;;;;;;;;;;14.83;44.82;99560.47;4475424;31;34135;-82
2022/12/25 02:29:16;;;;;;;;;;;;;;;14.69;45.16;99564.78;4482838;31;34868;-85
2022/12/25 02:31:46;;;;;;;;;;;;;;;14.44;45.67;99557.72;4472800;32;32310;-94
2022/12/25 02:34:13;;;;;;;;;;;;;;;14.87;45.03;99553.50;4478464;31;34218;-84
2022/12/25 02:36:43;;;;;;;;;;;;;;;14.97;44.85;99565.72;4487283;31;34401;-86
2022/12/25 02:42:00;;;;;;;;;;;;;;;15.11;44.47;99567.47;4480096;31;32975;-93
2022/12/25 03:07:02;;;;;;;;;;;;;;;14.83;44.88;99586.56;4471866;31;34318;-84
2022/12/25 03:12:37;;;;;;;;;;;;;;;14.72;45.35;99596.09;4493137;31;34478;-84
2022/12/25 03:17:52;;;;;;;;;;;;;;;14.97;45.00;99620.53;4481722;31;35062;-83
2022/12/25 03:28:37;;;;;;;;;;;;;;;14.82;45.40;99610.06;4499429;31;34977;-85
2022/12/25 03:31:17;;;;;;;;;;;;;;;14.92;45.16;99617.03;4486034;31;34186;-85
2022/12/25 03:49:50;;;;;;;;;;;;;;;14.75;45.40;99648.31;4498180;31;33519;-94
2022/12/25 04:38:03;;;;;;;;;;;;;;;15.22;44.12;99634.50;4494312;31;34631;-86
2022/12/25 04:40:30;;;;;;;;;;;;;;;14.96;44.48;99642.28;4498060;31;34268;-88
2022/12/25 04:42:57;;;;;;;;;;;;;;;15.19;44.05;99638.84;4486781;31;33350;-93
2022/12/25 04:45:25;;;;;;;;;;;;;;;15.24;43.81;99631.91;4488441;31;33710;-84
2022/12/25 04:47:52;;;;;;;;;;;;;;;15.06;43.88;99625.78;4488164;31;34085;-95
2022/12/25 04:50:19;;;;;;;;;;;;;;;15.02;43.90;99626.63;4482467;32;33998;-83
2022/12/25 04:52:47;;;;;;;;;;;;;;;15.21;43.46;99638.00;4483076;31;33311;-94
2022/12/25 04:55:14;;;;;;;;;;;;;;;15.12;43.58;99637.13;4494881;31;33990;-93
2022/12/25 04:57:41;;;;;;;;;;;;;;;15.15;43.48;99643.19;4488844;31;34308;-86
2022/12/25 05:00:09;;;;;;;;;;;;;;;15.03;43.74;99638.81;4470313;32;32774;-94
2022/12/25 05:02:36;;;;;;;;;;;;;;;15.05;43.68;99641.44;4486549;31;33844;-95
2022/12/25 05:05:04;;;;;;;;;;;;;;;14.97;43.78;99644.03;4487482;31;35099;-96
2022/12/25 05:07:31;;;;;;;;;;;;;;;14.98;43.82;99643.16;4471549;31;35897;-93
2022/12/25 05:09:58;;;;;;;;;;;;;;;14.96;43.93;99639.66;4480468;31;35404;-93
2022/12/25 05:12:26;;;;;;;;;;;;;;;15.03;43.67;99633.59;4477389;31;33223;-89
2022/12/25 05:14:53;;;;;;;;;;;;;;;14.91;44.04;99633.56;4479439;31;34956;-94
2022/12/25 05:17:20;;;;;;;;;;;;;;;14.98;43.85;99632.72;4485949;31;34582;-95
2022/12/25 05:19:47;;;;;;;;;;;;;;;15.22;43.26;99638.84;4485123;32;34370;-96
2022/12/25 05:22:15;;;;;;;;;;;;;;;14.59;44.47;99641.31;4463320;31;33535;-88
2022/12/25 05:24:42;;;;;;;;;;;;;;;14.83;43.87;99659.66;4488230;31;34204;-89
2022/12/25 05:27:09;;;;;;;;;;;;;;;14.66;44.32;99643.09;4485237;31;34396;-84
2022/12/25 05:29:37;;;;;;;;;;;;;;;14.95;43.82;99640.53;4485961;31;35268;-89
2022/12/25 05:32:04;;;;;;;;;;;;;;;14.55;44.50;99653.47;4474625;31;33556;-84
2022/12/25 05:34:31;;;;;;;;;;;;;;;14.58;44.34;99642.16;4492088;31;33910;-92
2022/12/25 05:36:59;;;;;;;;;;;;;;;14.82;43.92;99649.22;4478928;31;34286;-95
2022/12/25 05:39:26;;;;;;;;;;;;;;;14.61;44.33;99650.00;4503538;31;34785;-84
2022/12/25 05:41:53;;;;;;;;;;;;;;;14.78;44.01;99647.47;4470529;31;33043;-96
2022/12/25 05:44:20;;;;;;;;;;;;;;;14.94;43.76;99648.38;4476360;32;34225;-95
2022/12/25 05:46:48;;;;;;;;;;;;;;;14.89;43.56;99655.31;4486093;31;35226;-96
2022/12/25 05:49:15;;;;;;;;;;;;;;;14.83;43.69;99664.00;4488367;31;35077;-84
2022/12/25 05:51:42;;;;;;;;;;;;;;;14.66;44.14;99663.97;4470909;31;33838;-95
2022/12/25 05:54:10;;;;;;;;;;;;;;;14.82;43.67;99663.16;4499036;31;34089;-95
2022/12/25 05:56:37;;;;;;;;;;;;;;;14.88;43.57;99664.00;4481451;31;34120;-96
2022/12/25 05:59:04;;;;;;;;;;;;;;;14.70;43.78;99660.50;4486457;31;34429;-96
2022/12/25 06:01:32;;;;;;;;;;;;;;;14.74;43.80;99662.25;4482151;31;33478;-94
2022/12/25 06:03:59;;;;;;;;;;;;;;;14.46;44.15;99674.25;4471468;31;34653;-94
2022/12/25 06:06:27;;;;;;;;;;;;;;;14.80;43.42;99666.59;4484495;31;35306;-91
2022/12/25 06:08:54;;;;;;;;;;;;;;;14.33;44.40;99672.44;4477938;31;34040;-85
2022/12/25 06:11:22;;;;;;;;;;;;;;;14.71;43.69;99661.34;4461217;31;32722;-83
2022/12/25 06:13:50;;;;;;;;;;;;;;;14.77;43.28;99663.97;4455580;31;33878;-84
2022/12/25 06:16:17;;;;;;;;;;;;;;;14.57;43.36;99664.75;4483671;31;34483;-91
2022/12/25 06:18:46;;;;;;;;;;;;;;;14.58;43.21;99653.50;4475822;31;34509;-83
2022/12/25 06:21:13;;;;;;;;;;;;;;;14.87;42.69;99650.09;4497437;31;33445;-89
2022/12/25 06:23:42;;;;;;;;;;;;;;;14.82;42.55;99649.22;4482359;31;33952;-84
2022/12/25 06:26:10;;;;;;;;;;;;;;;14.79;42.65;99655.28;4491844;31;34444;-86
2022/12/25 06:28:37;;;;;;;;;;;;;;;14.81;42.46;99657.91;4484618;31;34085;-94
2022/12/25 06:31:09;;;;;;;;;;;;;;;14.73;42.57;99657.00;4486939;31;34056;-96
2022/12/25 06:33:37;;;;;;;;;;;;;;;14.54;42.82;99659.53;4460379;31;33349;-93
2022/12/25 06:36:06;;;;;;;;;;;;;;;14.66;42.50;99653.53;4491627;31;34283;-89
2022/12/25 06:38:34;;;;;;;;;;;;;;;14.37;42.71;99671.59;4482077;31;33937;-85
2022/12/25 06:41:02;;;;;;;;;;;;;;;14.40;42.71;99674.22;4484141;31;33674;-96
2022/12/25 06:43:29;;;;;;;;;;;;;;;14.47;42.67;99683.84;4471867;32;35137;-88
2022/12/25 06:46:00;;;;;;;;;;;;;;;14.46;42.57;99689.91;4486603;31;34180;-93
2022/12/25 06:48:28;;;;;;;;;;;;;;;14.27;42.95;99698.47;4489379;31;34827;-90
2022/12/25 06:50:55;;;;;;;;;;;;;;;14.48;42.84;99700.38;4498276;31;32966;-84
2022/12/25 06:53:25;;;;;;;;;;;;;;;14.59;42.40;99683.94;4497927;31;34350;-93
2022/12/25 06:55:52;;;;;;;;;;;;;;;14.63;42.43;99699.59;4496394;31;33925;-96
2022/12/25 06:58:19;;;;;;;;;;;;;;;14.48;42.66;99702.97;4482439;31;34192;-83
2022/12/25 07:00:46;;;;;;;;;;;;;;;14.07;43.82;99707.03;4498637;31;34202;-88
2022/12/25 07:03:15;;;;;;;;;;;;;;;14.25;43.48;99710.66;4495845;31;34248;-93
2022/12/25 07:05:43;;;;;;;;;;;;;;;14.16;43.58;99707.97;4483079;31;34149;-95
2022/12/25 07:08:10;;;;;;;;;;;;;;;13.98;43.94;99709.59;4488641;31;35274;-84
2022/12/25 07:10:38;;;;;;;;;;;;;;;14.07;43.69;99722.69;4490528;31;33959;-83
2022/12/25 07:13:05;;;;;;;;;;;;;;;14.15;43.52;99720.13;4487669;31;34784;-92
2022/12/25 07:15:32;;;;;;;;;;;;;;;14.44;42.97;99716.88;4482911;31;33980;-90
2022/12/25 07:18:00;;;;;;;;;;;;;;;14.17;43.70;99736.69;4496712;31;34496;-95
2022/12/25 07:20:28;;;;;;;;;;;;;;;14.31;43.60;99734.16;4478365;31;33852;-84
2022/12/25 07:22:56;;;;;;;;;;;;;;;14.30;43.81;99742.84;4475366;31;34236;-96
2022/12/25 07:25:23;;;;;;;;;;;;;;;14.32;43.84;99746.34;4488576;31;34436;-91
2022/12/25 07:27:50;;;;;;;;;;;;;;;14.48;43.64;99748.19;4480644;31;35163;-96
2022/12/25 07:30:17;;;;;;;;;;;;;;;14.14;44.49;99751.44;4479609;31;33777;-82
2022/12/25 07:32:45;;;;;;;;;;;;;;;13.07;48.15;99752.09;4495038;31;33822;-96
2022/12/25 07:35:16;;;;;;;;;;;;;;;13.46;47.46;99761.22;4478906;31;33874;-82
2022/12/25 07:37:43;;;;;;;;;;;;;;;13.96;46.22;99763.44;4497281;31;34537;-85
2022/12/25 07:40:11;;;;;;;;;;;;;;;14.10;45.58;99774.88;4483527;31;33542;-86
2022/12/25 07:42:38;;;;;;;;;;;;;;;14.10;45.86;99768.78;4490149;31;34225;-96
2022/12/25 07:45:06;;;;;;;;;;;;;;;14.51;44.99;99776.06;4483479;31;33408;-84
2022/12/25 07:47:33;;;;;;;;;;;;;;;14.52;44.59;99781.28;4487057;31;34236;-95
2022/12/25 07:50:00;;;;;;;;;;;;;;;14.58;44.52;99799.59;4477398;31;33571;-95
2022/12/25 07:52:28;;;;;;;;;;;;;;;14.63;44.39;99798.78;4476583;32;33897;-83
2022/12/25 07:54:55;;;;;;;;;;;;;;;14.76;44.04;99808.41;4484510;31;34962;-86
2022/12/25 07:57:22;;;;;;;;;;;;;;;14.64;44.23;99810.94;4486669;31;34233;-82
2022/12/25 07:59:49;;;;;;;;;;;;;;;14.56;44.17;99808.28;4497143;31;33811;-83
2022/12/25 08:02:17;;;;;;;;;;;;;;;14.56;44.31;99814.38;4496713;31;35015;-88
2022/12/25 08:04:45;;;;;;;;;;;;;;;14.36;44.93;99815.94;4496646;31;34206;-86
2022/12/25 08:07:12;;;;;;;;;;;;;;;14.43;44.77;99811.63;4490653;31;35367;-91
2022/12/25 08:09:40;;;;;;;;;;;;;;;14.38;45.08;99814.19;4457058;31;33807;-92
2022/12/25 08:12:07;;;;;;;;;;;;;;;14.28;45.60;99815.88;4482324;31;34277;-83
2022/12/25 08:14:34;;;;;;;;;;;;;;;13.84;46.89;99816.34;4497920;31;35260;-83
2022/12/25 08:17:01;;;;;;;;;;;;;;;13.89;47.26;99821.59;4486833;31;34554;-83
2022/12/25 08:19:29;;;;;;;;;;;;;;;13.67;48.25;99823.09;4497735;31;33688;-83
2022/12/25 08:21:56;;;;;;;;;;;;;;;13.80;48.14;99824.97;4483008;31;34225;-85
2022/12/25 08:24:23;;;;;;;;;;;;;;;13.73;48.46;99832.72;4454791;32;35089;-83
2022/12/25 08:26:51;;;;;;;;;;;;;;;13.99;47.76;99828.66;4483984;31;35206;-84
2022/12/25 08:29:18;;;;;;;;;;;;;;;14.08;47.80;99830.47;4483370;31;34259;-82
2022/12/25 08:31:45;;;;;;;;;;;;;;;14.05;47.96;99830.41;4488606;31;34158;-84
2022/12/25 08:34:13;;;;;;;;;;;;;;;14.07;47.82;99834.81;4495019;31;34388;-84
2022/12/25 08:36:41;;;;;;;;;;;;;;;14.10;48.01;99834.84;4493575;31;34205;-92
2022/12/25 08:39:08;;;;;;;;;;;;;;;14.26;47.61;99832.38;4482907;31;33583;-90
2022/12/25 08:41:35;;;;;;;;;;;;;;;14.24;47.65;99828.84;4483893;31;34821;-92
2022/12/25 08:44:03;;;;;;;;;;;;;;;14.01;48.25;99829.50;4495053;31;33907;-88
2022/12/25 08:46:30;;;;;;;;;;;;;;;14.11;48.16;99828.75;4492137;31;35199;-90
2022/12/25 08:48:58;;;;;;;;;;;;;;;14.42;47.44;99836.84;4491640;31;32730;-84
2022/12/25 08:51:25;;;;;;;;;;;;;;;14.44;47.22;99840.34;4468144;31;34026;-92
2022/12/25 08:53:54;;;;;;;;;;;;;;;14.67;46.48;99842.28;4482564;31;34977;-95
2022/12/25 08:56:22;;;;;;;;;;;;;;;14.99;45.65;99840.72;4486992;31;34428;-95
2022/12/25 08:58:56;;;;;;;;;;;;;;;14.65;46.06;99839.66;4485781;31;34532;-91
2022/12/25 09:01:24;;;;;;;;;;;;;;;14.48;46.45;99847.31;4491385;31;35072;-93
2022/12/25 09:03:51;;;;;;;;;;;;;;;14.55;46.44;99849.16;4471444;31;35123;-93
2022/12/25 09:06:19;;;;;;;;;;;;;;;14.57;46.23;99847.41;4481416;31;33928;-95
2022/12/25 09:08:46;;;;;;;;;;;;;;;14.69;46.26;99848.37;4474703;31;33749;-83
2022/12/25 09:11:17;;;;;;;;;;;;;;;14.57;46.45;99844.81;4484801;31;34043;-82
2022/12/25 09:13:44;;;;;;;;;;;;;;;14.51;46.89;99846.53;4476465;31;35068;-94
2022/12/25 09:16:13;;;;;;;;;;;;;;;14.75;46.36;99846.69;4473550;31;35254;-84
2022/12/25 09:18:41;;;;;;;;;;;;;;;14.81;46.22;99840.63;4475008;31;34354;-91
2022/12/25 09:21:09;;;;;;;;;;;;;;;14.62;46.79;99850.06;4483431;31;33226;-83
2022/12/25 09:23:36;;;;;;;;;;;;;;;14.53;47.23;99844.78;4470865;31;34520;-86
2022/12/25 09:26:04;;;;;;;;;;;;;;;14.44;47.53;99844.69;4483370;31;34338;-91
2022/12/25 09:28:31;;;;;;;;;;;;;;;14.00;48.80;99843.41;4487126;31;33683;-92
2022/12/25 09:30:59;;;;;;;;;;;;;;;14.54;47.61;99834.34;4492054;31;34350;-82
2022/12/25 09:33:26;;;;;;;;;;;;;;;14.50;47.76;99835.19;4479702;31;35060;-85
2022/12/25 09:35:54;;;;;;;;;;;;;;;15.04;46.45;99839.03;4483857;31;34276;-90
2022/12/25 09:38:22;;;;;;;;;;;;;;;14.89;46.87;99838.94;4473183;31;33603;-88
2022/12/25 09:41:07;;;;;;;;;;;;;;;15.06;46.50;99837.28;4482132;31;33674;-90
2022/12/25 09:43:40;;;;;;;;;;;;;;;15.16;46.20;99838.22;4475031;31;34098;-94
2022/12/25 09:46:07;;;;;;;;;;;;;;;15.36;46.09;99835.69;4479067;32;35288;-92
2022/12/25 09:48:35;;;;;;;;;;;;;;;15.29;46.00;99846.97;4478323;31;34231;-93
2022/12/25 09:51:08;;;;;;;;;;;;;;;15.13;46.47;99853.88;4477303;31;35358;-89
2022/12/25 09:53:39;;;;;;;;;;;;;;;15.11;46.49;99849.50;4474537;31;35326;-93
2022/12/25 09:56:11;;;;;;;;;;;;;;;15.06;46.54;99846.88;4484129;31;33847;-84
2022/12/25 09:58:39;;;;;;;;;;;;;;;14.57;47.72;99852.62;4469407;31;33315;-82
2022/12/25 10:01:14;;;;;;;;;;;;;;;14.88;47.38;99855.47;4488052;31;34188;-84
2022/12/25 10:03:48;;;;;;;;;;;;;;;15.31;46.33;99859.19;4481868;31;34360;-84
2022/12/25 10:06:16;;;;;;;;;;;;;;;15.24;46.60;99852.19;4475173;31;34363;-82
2022/12/25 10:08:58;;;;;;;;;;;;;;;15.44;46.33;99846.19;4479597;31;33349;-85
2022/12/25 10:11:53;;;;;;;;;;;;;;;14.99;46.98;99853.78;4488368;31;33863;-82
2022/12/25 10:14:24;;;;;;;;;;;;;;;15.53;46.17;99839.25;4458212;32;34083;-92
2022/12/25 10:17:03;;;;;;;;;;;;;;;16.02;44.98;99826.34;4478805;31;34144;-89
2022/12/25 10:19:30;;;;;;;;;;;;;;;16.02;44.77;99821.09;4473308;31;33629;-83
2022/12/25 10:22:01;;;;;;;;;;;;;;;16.19;44.35;99825.47;4476737;31;34016;-90
2022/12/25 10:24:35;;;;;;;;;;;;;;;16.47;43.93;99827.19;4481156;31;34828;-91
2022/12/25 10:27:06;;;;;;;;;;;;;;;16.53;43.96;99821.09;4469664;32;35052;-92
2022/12/25 10:29:33;;;;;;;;;;;;;;;16.30;44.32;99823.72;4476615;31;32968;-91
2022/12/25 10:32:00;;;;;;;;;;;;;;;16.24;44.54;99813.25;4482169;32;33718;-89
2022/12/25 10:34:28;;;;;;;;;;;;;;;16.54;44.10;99812.38;4482533;32;34486;-88
2022/12/25 10:36:55;;;;;;;;;;;;;;;16.36;44.19;99818.47;4465481;32;35088;-90
2022/12/25 10:39:23;;;;;;;;;;;;;;;16.37;44.50;99817.63;4486039;31;33681;-82
2022/12/25 10:42:07;;;;;;;;;;;;;;;16.46;44.34;99816.75;4480363;31;34029;-83
2022/12/25 10:44:35;;;;;;;;;;;;;;;16.56;44.29;99825.47;4472810;32;33745;-88
2022/12/25 10:47:02;;;;;;;;;;;;;;;16.70;43.62;99813.22;4481251;31;34177;-88
2022/12/25 10:49:31;;;;;;;;;;;;;;;16.67;43.54;99808.00;4490167;31;33641;-92
2022/12/25 10:51:58;;;;;;;;;;;;;;;16.76;43.75;99811.50;4471101;32;34665;-93
2022/12/25 10:54:25;;;;;;;;;;;;;;;16.80;43.43;99812.34;4470971;32;34220;-90
2022/12/25 10:57:00;;;;;;;;;;;;;;;16.79;43.57;99813.25;4483499;31;35926;-82
2022/12/25 10:59:28;;;;;;;;;;;;;;;17.15;42.90;99811.37;4479588;31;34461;-89
2022/12/25 11:02:01;;;;;;;;;;;;;;;17.03;42.85;99809.69;4475147;31;33833;-91
2022/12/25 11:04:32;;;;;;;;;;;;;;;16.78;43.29;99808.84;4475894;32;35011;-87
2022/12/25 11:07:00;;;;;;;;;;;;;;;16.79;43.17;99802.78;4476895;31;34917;-84
2022/12/25 11:09:28;;;;;;;;;;;;;;;16.88;43.08;99797.50;4468380;32;33560;-91
2022/12/25 11:11:55;;;;;;;;;;;;;;;16.85;43.38;99794.00;4468897;32;34151;-88
2022/12/25 11:14:22;;;;;;;;;;;;;;;17.03;43.13;99786.97;4467800;32;33747;-91
2022/12/25 11:16:50;;;;;;;;;;;;;;;17.16;42.92;99792.16;4469953;32;33226;-90
2022/12/25 11:19:27;;;;;;;;;;;;;;;17.37;42.20;99789.44;4484913;31;33503;-88
2022/12/25 11:21:59;;;;;;;;;;;;;;;17.24;42.50;99787.78;4478128;31;33637;-88
2022/12/25 11:24:27;;;;;;;;;;;;;;;17.19;42.82;99781.66;4468615;32;34378;-90
2022/12/25 11:26:56;;;;;;;;;;;;;;;16.92;43.31;99783.50;4477223;31;34412;-83
2022/12/25 11:29:23;;;;;;;;;;;;;;;17.29;42.00;99769.41;4478241;31;33661;-88
2022/12/25 11:31:51;;;;;;;;;;;;;;;17.40;42.07;99771.09;4480890;31;34333;-87
2022/12/25 11:34:31;;;;;;;;;;;;;;;17.26;42.60;99780.75;4482164;31;34318;-87
2022/12/25 11:36:59;;;;;;;;;;;;;;;17.29;42.43;99779.91;4477414;31;32899;-88
2022/12/25 11:39:30;;;;;;;;;;;;;;;17.25;42.36;99772.03;4469069;32;33835;-90
2022/12/25 11:42:05;;;;;;;;;;;;;;;17.28;42.32;99776.41;4466818;31;33600;-89
2022/12/25 11:44:37;;;;;;;;;;;;;;;17.41;42.30;99778.06;4484118;31;32984;-87
2022/12/25 11:47:11;;;;;;;;;;;;;;;16.77;43.52;99778.31;4454411;32;34475;-85
2022/12/25 11:49:44;;;;;;;;;;;;;;;16.80;43.44;99778.31;4481018;32;32526;-88
2022/12/25 11:52:16;;;;;;;;;;;;;;;17.00;42.96;99786.97;4477805;31;34987;-83
2022/12/25 11:54:46;;;;;;;;;;;;;;;16.86;43.89;99783.56;4472264;32;33684;-91
2022/12/25 11:57:14;;;;;;;;;;;;;;;16.53;44.87;99774.00;4464882;32;35135;-92
2022/12/25 11:59:49;;;;;;;;;;;;;;;16.75;44.36;99772.22;4466292;32;33420;-85
2022/12/25 12:02:24;;;;;;;;;;;;;;;16.74;44.51;99773.09;4475595;31;34381;-93
2022/12/25 12:04:56;;;;;;;;;;;;;;;16.96;44.09;99779.13;4471288;32;35408;-86
2022/12/25 12:07:24;;;;;;;;;;;;;;;17.17;43.92;99772.97;4466792;31;34488;-91
2022/12/25 12:10:11;;;;;;;;;;;;;;;17.42;43.20;99763.22;4477425;31;33291;-84
2022/12/25 12:12:39;;;;;;;;;;;;;;;17.00;44.02;99776.50;4484317;31;34061;-90
2022/12/25 12:15:18;;;;;;;;;;;;;;;16.95;44.21;99762.56;4476320;31;34421;-90
2022/12/25 12:17:45;;;;;;;;;;;;;;;17.11;44.19;99763.34;4472470;31;35149;-92
2022/12/25 12:20:22;;;;;;;;;;;;;;;17.07;44.22;99771.25;4480354;31;33774;-88
2022/12/25 12:22:50;;;;;;;;;;;;;;;16.96;44.49;99774.75;4467625;31;34083;-85
2022/12/25 12:25:17;;;;;;;;;;;;;;;17.63;43.26;99767.47;4465831;32;34017;-89
2022/12/25 12:27:44;;;;;;;;;;;;;;;17.51;43.80;99774.53;4476010;32;33212;-90
2022/12/25 12:30:26;;;;;;;;;;;;;;;17.38;44.22;99772.84;4480869;31;33591;-90
2022/12/25 12:32:58;;;;;;;;;;;;;;;17.73;42.75;99782.28;4466611;32;35152;-87
2022/12/25 12:35:26;;;;;;;;;;;;;;;17.67;41.80;99772.69;4483025;31;34322;-91
2022/12/25 12:37:57;;;;;;;;;;;;;;;17.25;43.44;99777.28;4481002;31;34517;-86
2022/12/25 12:40:36;;;;;;;;;;;;;;;17.77;41.49;99765.66;4479561;31;32671;-85
2022/12/25 12:43:04;;;;;;;;;;;;;;;17.85;42.21;99768.25;4474137;31;34991;-83
2022/12/25 12:45:32;;;;;;;;;;;;;;;17.14;44.37;99768.59;4477894;31;35247;-92
2022/12/25 12:48:00;;;;;;;;;;;;;;;17.80;42.72;99770.00;4468106;32;35076;-87
2022/12/25 12:50:35;;;;;;;;;;;;;;;17.86;42.23;99770.84;4467001;32;33397;-88
2022/12/25 12:53:20;;;;;;;;;;;;;;;17.74;43.18;99776.12;4467852;32;33875;-93
2022/12/25 12:55:48;;;;;;;;;;;;;;;17.62;43.85;99777.09;4481185;31;34421;-93
2022/12/25 12:58:34;;;;;;;;;;;;;;;17.75;43.88;99777.91;4480288;31;34180;-86
2022/12/25 13:01:20;;;;;;;;;;;;;;;17.92;43.47;99783.91;4468375;32;34291;-92
2022/12/25 13:04:17;;;;;;;;;;;;;;;18.19;43.18;99788.09;4480784;31;33739;-93
2022/12/25 13:06:46;;;;;;;;;;;;;;;17.00;45.83;99794.81;4435858;32;33576;-83
2022/12/25 13:09:13;;;;;;;;;;;;;;;17.86;43.96;99790.97;4463720;32;35728;-84
2022/12/25 13:11:41;;;;;;;;;;;;;;;18.03;43.38;99793.44;4480488;31;31984;-90
2022/12/25 13:14:16;;;;;;;;;;;;;;;18.31;43.06;99794.97;4467709;32;33923;-93
2022/12/25 13:16:44;;;;;;;;;;;;;;;18.47;42.61;99790.44;4470107;32;34830;-84
2022/12/25 13:19:17;;;;;;;;;;;;;;;18.61;42.09;99783.31;4470470;32;34288;-83
2022/12/25 13:21:50;;;;;;;;;;;;;;;18.64;41.76;99782.44;4461792;32;33433;-87
2022/12/25 13:24:19;;;;;;;;;;;;;;;18.49;41.64;99783.44;4479207;31;33694;-89
2022/12/25 13:26:46;;;;;;;;;;;;;;;17.63;43.32;99776.19;4469751;31;35154;-88
2022/12/25 13:29:32;;;;;;;;;;;;;;;18.10;42.74;99779.41;4476879;31;35200;-91
2022/12/25 13:32:00;;;;;;;;;;;;;;;18.48;42.03;99779.91;4472982;31;34393;-84
2022/12/25 13:34:31;;;;;;;;;;;;;;;18.45;43.06;99781.75;4469975;31;34477;-92
2022/12/25 13:36:59;;;;;;;;;;;;;;;18.63;42.53;99783.28;4469891;32;34935;-91
2022/12/25 13:39:26;;;;;;;;;;;;;;;18.21;43.70;99793.31;4468349;32;35466;-85
2022/12/25 13:42:08;;;;;;;;;;;;;;;18.17;43.71;99788.97;4466869;32;34048;-87
2022/12/25 13:44:36;;;;;;;;;;;;;;;18.25;43.50;99787.13;4487949;31;34240;-88
2022/12/25 13:47:23;;;;;;;;;;;;;;;17.92;44.16;99785.69;4484995;31;34160;-91
2022/12/25 13:49:51;;;;;;;;;;;;;;;18.13;43.98;99797.75;4481857;31;34360;-88
2022/12/25 13:52:20;;;;;;;;;;;;;;;18.25;43.28;99789.75;4478791;31;33412;-85
2022/12/25 13:54:55;;;;;;;;;;;;;;;18.22;42.92;99797.66;4466254;32;34232;-83
2022/12/25 13:57:24;;;;;;;;;;;;;;;17.92;43.66;99797.03;4475315;31;33786;-88
2022/12/25 13:59:51;;;;;;;;;;;;;;;18.04;43.73;99787.34;4485038;31;34288;-88
2022/12/25 14:02:19;;;;;;;;;;;;;;;17.53;45.19;99787.63;4487009;31;33602;-86
2022/12/25 14:04:47;;;;;;;;;;;;;;;17.78;44.67;99793.63;4457020;32;34140;-86
2022/12/25 14:07:15;;;;;;;;;;;;;;;17.39;44.97;99787.72;4473114;32;33744;-85
2022/12/25 14:09:42;;;;;;;;;;;;;;;17.40;45.23;99784.19;4477486;31;34344;-88
2022/12/25 14:12:09;;;;;;;;;;;;;;;17.44;44.73;99796.41;4485401;31;33557;-90
2022/12/25 14:14:44;;;;;;;;;;;;;;;17.35;45.14;99793.84;4468777;31;33934;-91
2022/12/25 14:17:12;;;;;;;;;;;;;;;17.59;44.41;99794.59;4462801;31;35141;-82
2022/12/25 14:19:39;;;;;;;;;;;;;;;17.37;44.69;99788.59;4478478;31;34011;-81
2022/12/25 14:22:10;;;;;;;;;;;;;;;17.60;44.21;99791.09;4483241;31;33156;-85
2022/12/25 14:24:38;;;;;;;;;;;;;;;17.35;44.69;99792.94;4483564;31;34146;-84
2022/12/25 14:27:06;;;;;;;;;;;;;;;17.50;44.30;99790.25;4461264;31;34345;-84
2022/12/25 14:29:35;;;;;;;;;;;;;;;16.95;45.58;99799.22;4482500;31;34533;-86
2022/12/25 14:32:04;;;;;;;;;;;;;;;17.07;44.96;99807.91;4480109;31;34012;-90
2022/12/25 14:34:31;;;;;;;;;;;;;;;17.33;44.34;99795.59;4478539;31;33938;-86
2022/12/25 14:36:58;;;;;;;;;;;;;;;17.31;44.04;99799.94;4475997;31;34795;-87
2022/12/25 14:39:32;;;;;;;;;;;;;;;17.15;44.37;99809.63;4464330;32;34445;-89
2022/12/25 14:42:11;;;;;;;;;;;;;;;17.25;44.15;99800.00;4480110;31;32831;-86
2022/12/25 14:44:39;;;;;;;;;;;;;;;17.14;44.37;99812.25;4464413;31;33874;-86
2022/12/25 14:47:09;;;;;;;;;;;;;;;17.41;43.89;99814.75;4482405;31;34744;-92